createdAt,value
2023-05-01T00:02:04.127Z,74.28
2023-05-01T00:04:33.212Z,73.91
2023-05-01T00:06:59.984Z,73.47
2023-05-01T00:09:27.575Z,73.25
2023-05-01T00:11:54.384Z,72.91
2023-05-01T00:14:21.433Z,72.84
2023-05-01T00:16:48.526Z,72.75
2023-05-01T00:19:22.653Z,72.71
2023-05-01T00:21:52.878Z,72.43
2023-05-01T00:24:22.582Z,72.38
2023-05-01T00:26:49.430Z,72.14
2023-05-01T00:29:16.594Z,72.23
2023-05-01T00:31:44.890Z,71.84
2023-05-01T00:34:11.840Z,71.64
2023-05-01T00:36:41.193Z,72.12
2023-05-01T00:39:08.315Z,72.19
2023-05-01T00:41:35.721Z,72.15
2023-05-01T00:44:02.954Z,72.08
2023-05-01T00:46:31.633Z,71.91
2023-05-01T00:48:58.903Z,71.49
2023-05-01T00:51:28.512Z,71.26
2023-05-01T00:53:55.785Z,71.09
2023-05-01T00:56:22.722Z,71.65
2023-05-01T00:58:53.429Z,71.63
2023-05-01T01:01:21.304Z,71.59
2023-05-01T01:03:48.587Z,71.66
2023-05-01T01:06:27.166Z,71.65
2023-05-01T01:09:30.867Z,71.76
2023-05-01T01:12:16.679Z,72.35
2023-05-01T01:15:04.982Z,72.55
2023-05-01T01:17:45.123Z,72.65
2023-05-01T01:20:29.842Z,73.07
2023-05-01T01:23:25.972Z,72.99
2023-05-01T01:26:17.918Z,72.83
2023-05-01T01:28:51.813Z,73.58
2023-05-01T01:31:54.114Z,73.13
2023-05-01T01:34:27.305Z,72.92
2023-05-01T01:37:11.321Z,73.07
2023-05-01T01:39:52.145Z,72.58
2023-05-01T01:42:26.232Z,73.02
2023-05-01T01:45:04.443Z,73.41
2023-05-01T01:47:33.849Z,73.86
2023-05-01T01:50:04.566Z,73.97
2023-05-01T01:52:34.723Z,74.14
2023-05-01T01:55:13.192Z,74.05
2023-05-01T01:57:44.188Z,74.39
2023-05-01T02:00:13.588Z,74.40
2023-05-01T02:02:40.690Z,74.31
2023-05-01T02:05:10.964Z,74.59
2023-05-01T02:07:39.913Z,73.61
2023-05-01T02:10:09.136Z,74.12
2023-05-01T02:12:36.826Z,74.55
2023-05-01T02:15:06.460Z,74.33
2023-05-01T02:17:36.366Z,74.27
2023-05-01T02:20:05.560Z,74.35
2023-05-01T02:22:33.111Z,74.45
2023-05-01T02:25:01.330Z,74.35
2023-05-01T02:27:37.810Z,74.44
2023-05-01T02:30:05.118Z,74.46
2023-05-01T02:32:32.058Z,74.47
2023-05-01T02:34:59.871Z,74.37
2023-05-01T02:37:27.619Z,74.38
2023-05-01T02:39:55.291Z,74.46
2023-05-01T02:42:24.994Z,74.52
2023-05-01T02:44:56.777Z,74.44
2023-05-01T02:47:26.791Z,74.27
2023-05-01T02:49:54.500Z,74.58
2023-05-01T02:52:24.725Z,74.72
2023-05-01T02:54:52.850Z,74.90
2023-05-01T02:57:19.840Z,74.91
2023-05-01T02:59:46.373Z,74.76
2023-05-01T03:02:13.152Z,76.31
2023-05-01T03:04:42.163Z,76.46
2023-05-01T03:07:08.855Z,75.96
2023-05-01T03:09:35.527Z,76.03
2023-05-01T03:12:02.392Z,75.93
2023-05-01T03:14:29.214Z,76.13
2023-05-01T03:16:56.146Z,76.32
2023-05-01T03:19:23.237Z,76.18
2023-05-01T03:21:50.160Z,76.21
2023-05-01T03:24:16.830Z,76.27
2023-05-01T03:26:43.949Z,76.26
2023-05-01T03:29:12.744Z,76.33
2023-05-01T03:31:39.716Z,76.39
2023-05-01T03:34:06.979Z,76.55
2023-05-01T03:36:34.028Z,76.53
2023-05-01T03:39:01.064Z,76.50
2023-05-01T03:42:06.363Z,76.50
2023-05-01T03:44:38.845Z,76.39
2023-05-01T03:47:05.976Z,76.30
2023-05-01T03:49:33.958Z,76.41
2023-05-01T03:52:00.747Z,76.51
2023-05-01T03:54:27.902Z,76.53
2023-05-01T03:57:00.265Z,76.68
2023-05-01T03:59:27.017Z,76.98
2023-05-01T04:01:53.660Z,77.34
2023-05-01T04:04:20.859Z,77.39
2023-05-01T04:06:52.411Z,78.03
2023-05-01T04:09:19.306Z,78.21
2023-05-01T04:11:46.519Z,78.67
2023-05-01T04:14:13.251Z,78.71
2023-05-01T04:16:40.356Z,79.13
2023-05-01T04:19:07.147Z,79.36
2023-05-01T04:21:35.422Z,79.54
2023-05-01T04:24:02.371Z,79.61
2023-05-01T04:26:29.215Z,79.67
2023-05-01T04:28:55.849Z,79.68
2023-05-01T04:31:24.205Z,80.06
2023-05-01T04:33:51.140Z,79.96
2023-05-01T04:36:18.040Z,79.64
2023-05-01T04:38:45.266Z,79.73
2023-05-01T04:41:12.213Z,79.03
2023-05-01T04:43:39.051Z,79.05
2023-05-01T04:46:06.475Z,78.78
2023-05-01T04:48:33.246Z,78.61
2023-05-01T04:50:59.927Z,78.21
2023-05-01T04:53:28.480Z,76.32
2023-05-01T04:55:55.720Z,70.33
2023-05-01T04:58:22.673Z,67.40
2023-05-01T05:00:51.903Z,61.26
2023-05-01T05:03:22.780Z,57.86
2023-05-01T05:05:49.748Z,56.65
2023-05-01T05:08:16.599Z,53.30
2023-05-01T05:10:57.178Z,50.97
2023-05-01T05:13:27.556Z,50.34
2023-05-01T05:15:58.744Z,48.49
2023-05-01T05:18:25.827Z,46.37
2023-05-01T05:20:52.660Z,40.51
2023-05-01T05:23:19.365Z,41.44
2023-05-01T05:25:46.206Z,41.57
2023-05-01T05:28:13.583Z,39.06
2023-05-01T05:30:41.021Z,37.64
2023-05-01T05:33:08.439Z,36.34
2023-05-01T05:35:35.866Z,33.73
2023-05-01T05:38:03.002Z,32.11
2023-05-01T05:40:30.850Z,30.04
2023-05-01T05:42:57.568Z,29.36
2023-05-01T05:45:25.525Z,26.74
2023-05-01T05:47:52.257Z,26.13
2023-05-01T05:50:19.050Z,27.35
2023-05-01T05:52:45.991Z,27.10
2023-05-01T05:55:12.776Z,23.25
2023-05-01T05:57:40.014Z,23.27
2023-05-01T06:00:09.506Z,23.82
2023-05-01T06:02:43.965Z,23.70
2023-05-01T06:05:11.899Z,22.71
2023-05-01T06:07:39.261Z,20.79
2023-05-01T06:10:06.908Z,18.42
2023-05-01T06:12:35.166Z,19.99
2023-05-01T06:15:05.204Z,19.86
2023-05-01T06:17:36.884Z,16.60
2023-05-01T06:20:05.630Z,17.35
2023-05-01T06:22:32.501Z,17.70
2023-05-01T06:25:06.398Z,17.83
2023-05-01T06:27:33.621Z,19.57
2023-05-01T06:30:00.404Z,20.73
2023-05-01T06:32:27.169Z,20.78
2023-05-01T06:34:53.926Z,21.95
2023-05-01T06:37:20.924Z,23.38
2023-05-01T06:39:47.665Z,24.44
2023-05-01T06:42:16.160Z,25.58
2023-05-01T06:44:43.074Z,26.65
2023-05-01T06:47:10.162Z,27.30
2023-05-01T06:49:37.071Z,28.30
2023-05-01T06:52:03.976Z,29.27
2023-05-01T06:54:30.764Z,29.86
2023-05-01T06:56:57.619Z,31.03
2023-05-01T06:59:24.955Z,31.70
2023-05-01T07:01:52.139Z,32.03
2023-05-01T07:04:18.772Z,32.84
2023-05-01T07:06:45.855Z,33.08
2023-05-01T07:09:13.265Z,33.50
2023-05-01T07:11:40.089Z,33.58
2023-05-01T07:14:06.728Z,33.65
2023-05-01T07:16:33.845Z,34.44
2023-05-01T07:19:00.629Z,34.30
2023-05-01T07:21:27.333Z,34.30
2023-05-01T07:23:54.000Z,34.77
2023-05-01T07:26:20.644Z,34.53
2023-05-01T07:28:47.379Z,35.07
2023-05-01T07:31:14.668Z,35.30
2023-05-01T07:33:41.790Z,35.40
2023-05-01T07:36:08.774Z,35.80
2023-05-01T07:38:35.489Z,35.68
2023-05-01T07:41:02.214Z,36.19
2023-05-01T07:43:28.924Z,36.64
2023-05-01T07:46:00.133Z,36.77
2023-05-01T07:48:28.035Z,36.51
2023-05-01T07:50:56.451Z,36.35
2023-05-01T07:53:23.363Z,36.46
2023-05-01T07:55:53.336Z,37.05
2023-05-01T07:58:20.474Z,37.69
2023-05-01T08:00:47.740Z,37.25
2023-05-01T08:03:14.677Z,36.62
2023-05-01T08:05:42.053Z,35.37
2023-05-01T08:08:09.220Z,36.01
2023-05-01T08:10:36.449Z,36.69
2023-05-01T08:13:03.192Z,36.83
2023-05-01T08:15:30.030Z,37.02
2023-05-01T08:17:56.851Z,36.53
2023-05-01T08:20:23.812Z,35.86
2023-05-01T08:22:50.798Z,35.36
2023-05-01T08:25:18.856Z,34.52
2023-05-01T08:27:45.899Z,35.01
2023-05-01T08:30:13.301Z,35.31
2023-05-01T08:32:40.058Z,35.15
2023-05-01T08:35:07.213Z,34.38
2023-05-01T08:37:34.524Z,33.86
2023-05-01T08:40:07.677Z,34.18
2023-05-01T08:42:38.183Z,35.16
2023-05-01T08:45:10.059Z,34.68
2023-05-01T08:47:38.739Z,34.54
2023-05-01T08:50:09.615Z,34.78
2023-05-01T08:52:41.510Z,34.77
2023-05-01T08:55:12.702Z,34.71
2023-05-01T08:57:44.982Z,34.55
2023-05-01T09:00:18.094Z,34.97
2023-05-01T09:02:47.061Z,36.21
2023-05-01T09:05:19.011Z,35.90
2023-05-01T09:07:46.838Z,34.92
2023-05-01T09:10:17.224Z,34.93
2023-05-01T09:12:46.618Z,34.40
2023-05-01T09:15:13.799Z,34.23
2023-05-01T09:17:42.182Z,34.54
2023-05-01T09:20:10.021Z,34.51
2023-05-01T09:22:37.039Z,34.60
2023-05-01T09:25:04.301Z,34.41
2023-05-01T09:27:35.264Z,33.13
2023-05-01T09:30:03.021Z,31.64
2023-05-01T09:32:29.977Z,31.33
2023-05-01T09:35:11.377Z,31.63
2023-05-01T09:37:38.559Z,31.45
2023-05-01T09:40:13.754Z,31.43
2023-05-01T09:42:49.003Z,32.05
2023-05-01T09:45:16.290Z,31.14
2023-05-01T09:47:43.490Z,32.08
2023-05-01T09:50:30.098Z,33.01
2023-05-01T09:52:56.814Z,32.77
2023-05-01T09:55:25.621Z,32.62
2023-05-01T09:57:52.814Z,32.41
2023-05-01T10:00:21.373Z,32.32
2023-05-01T10:02:49.067Z,32.03
2023-05-01T10:05:16.296Z,32.16
2023-05-01T10:08:15.622Z,32.25
2023-05-01T10:10:43.091Z,32.65
2023-05-01T10:13:14.780Z,32.52
2023-05-01T10:15:41.464Z,32.44
2023-05-01T10:18:12.115Z,32.38
2023-05-01T10:20:38.967Z,32.05
2023-05-01T10:23:05.903Z,31.43
2023-05-01T10:25:33.038Z,31.22
2023-05-01T10:28:03.210Z,31.87
2023-05-01T10:30:30.856Z,31.90
2023-05-01T10:32:58.829Z,31.99
2023-05-01T10:35:33.772Z,31.82
2023-05-01T10:38:02.762Z,31.83
2023-05-01T10:40:38.822Z,31.76
2023-05-01T10:43:28.151Z,31.60
2023-05-01T10:46:07.695Z,31.02
2023-05-01T10:48:38.046Z,31.13
2023-05-01T10:51:21.513Z,31.63
2023-05-01T10:54:08.901Z,31.37
2023-05-01T10:56:42.408Z,31.43
2023-05-01T10:59:10.064Z,31.54
2023-05-01T11:01:37.714Z,31.92
2023-05-01T11:04:29.454Z,32.13
2023-05-01T11:07:05.130Z,31.79
2023-05-01T11:09:37.411Z,31.56
2023-05-01T11:12:05.062Z,31.28
2023-05-01T11:14:57.156Z,31.62
2023-05-01T11:17:40.269Z,31.50
2023-05-01T11:20:11.032Z,31.23
2023-05-01T11:22:45.726Z,31.29
2023-05-01T11:25:27.190Z,31.27
2023-05-01T11:28:03.126Z,31.49
2023-05-01T11:30:39.896Z,31.87
2023-05-01T11:33:10.173Z,31.50
2023-05-01T11:35:38.959Z,31.99
2023-05-01T11:38:05.727Z,30.82
2023-05-01T11:40:34.624Z,31.55
2023-05-01T11:43:08.358Z,30.48
2023-05-01T11:45:36.836Z,31.12
2023-05-01T11:48:05.057Z,31.15
2023-05-01T11:50:34.910Z,30.44
2023-05-01T11:53:02.878Z,30.98
2023-05-01T11:55:34.431Z,30.80
2023-05-01T11:58:02.185Z,30.58
2023-05-01T12:00:33.014Z,29.83
2023-05-01T12:03:09.510Z,30.04
2023-05-01T12:05:39.058Z,30.41
2023-05-01T12:08:10.708Z,30.14
2023-05-01T12:10:40.044Z,30.85
2023-05-01T12:13:08.318Z,30.77
2023-05-01T12:15:37.032Z,30.24
2023-05-01T12:18:05.063Z,30.63
2023-05-01T12:20:52.199Z,30.77
2023-05-01T12:23:29.914Z,30.93
2023-05-01T12:25:56.907Z,30.57
2023-05-01T12:28:26.909Z,30.50
2023-05-01T12:31:01.680Z,30.81
2023-05-01T12:33:29.580Z,31.01
2023-05-01T12:36:10.966Z,30.81
2023-05-01T12:38:37.847Z,31.00
2023-05-01T12:41:08.225Z,31.16
2023-05-01T12:43:37.627Z,30.65
2023-05-01T12:46:06.230Z,30.94
2023-05-01T12:48:38.382Z,30.83
2023-05-01T12:51:05.840Z,30.52
2023-05-01T12:53:32.984Z,29.96
2023-05-01T12:56:00.717Z,30.27
2023-05-01T12:58:37.040Z,29.74
2023-05-01T13:01:04.112Z,30.01
2023-05-01T13:03:32.321Z,30.24
2023-05-01T13:06:01.924Z,30.25
2023-05-01T13:08:36.388Z,30.12
2023-05-01T13:11:14.374Z,30.00
2023-05-01T13:13:43.267Z,29.98
2023-05-01T13:16:15.435Z,30.22
2023-05-01T13:18:49.968Z,30.04
2023-05-01T13:21:24.070Z,30.47
2023-05-01T13:23:55.955Z,30.68
2023-05-01T13:26:27.817Z,30.44
2023-05-01T13:28:56.500Z,30.12
2023-05-01T13:31:23.488Z,30.56
2023-05-01T13:33:52.913Z,30.76
2023-05-01T13:36:26.057Z,30.62
2023-05-01T13:38:56.069Z,30.67
2023-05-01T13:41:26.787Z,30.54
2023-05-01T13:43:56.649Z,29.76
2023-05-01T13:46:26.509Z,29.84
2023-05-01T13:48:53.391Z,29.52
2023-05-01T13:51:22.133Z,29.82
2023-05-01T13:53:48.821Z,29.49
2023-05-01T13:56:15.632Z,29.40
2023-05-01T13:58:42.557Z,29.45
2023-05-01T14:01:15.213Z,30.20
2023-05-01T14:03:42.884Z,30.55
2023-05-01T14:06:12.728Z,29.55
2023-05-01T14:08:40.368Z,29.60
2023-05-01T14:11:09.056Z,29.68
2023-05-01T14:13:35.901Z,29.09
2023-05-01T14:16:10.379Z,29.15
2023-05-01T14:18:47.547Z,29.39
2023-05-01T14:21:16.151Z,29.01
2023-05-01T14:23:42.781Z,30.05
2023-05-01T14:26:10.970Z,30.53
2023-05-01T14:28:45.633Z,30.42
2023-05-01T14:31:16.411Z,30.05
2023-05-01T14:33:43.718Z,29.37
2023-05-01T14:36:11.641Z,29.01
2023-05-01T14:38:39.982Z,29.55
2023-05-01T14:41:11.400Z,29.75
2023-05-01T14:43:40.939Z,29.80
2023-05-01T14:46:07.719Z,30.32
2023-05-01T14:48:36.580Z,31.02
2023-05-01T14:51:10.453Z,30.55
2023-05-01T14:53:41.690Z,30.32
2023-05-01T14:56:08.561Z,30.48
2023-05-01T14:58:35.814Z,30.01
2023-05-01T15:01:03.180Z,30.31
2023-05-01T15:03:31.777Z,30.30
2023-05-01T15:05:58.758Z,30.15
2023-05-01T15:08:25.966Z,30.13
2023-05-01T15:10:52.805Z,30.33
2023-05-01T15:13:20.770Z,30.39
2023-05-01T15:15:47.422Z,30.55
2023-05-01T15:18:14.189Z,30.41
2023-05-01T15:20:40.865Z,30.98
2023-05-01T15:23:07.535Z,30.42
2023-05-01T15:25:34.135Z,31.07
2023-05-01T15:28:00.806Z,30.49
2023-05-01T15:30:27.445Z,30.53
2023-05-01T15:32:55.295Z,30.92
2023-05-01T15:35:22.994Z,31.29
2023-05-01T15:37:50.229Z,30.98
2023-05-01T15:40:16.898Z,31.01
2023-05-01T15:42:47.295Z,31.17
2023-05-01T15:45:14.078Z,31.79
2023-05-01T15:47:40.865Z,32.13
2023-05-01T15:50:12.974Z,32.11
2023-05-01T15:52:40.108Z,32.02
2023-05-01T15:55:07.760Z,32.05
2023-05-01T15:57:35.209Z,32.10
2023-05-01T16:00:02.765Z,32.44
2023-05-01T16:02:31.946Z,32.76
2023-05-01T16:04:59.730Z,32.26
2023-05-01T16:07:29.035Z,32.06
2023-05-01T16:09:57.647Z,32.59
2023-05-01T16:12:27.458Z,32.58
2023-05-01T16:14:54.034Z,32.56
2023-05-01T16:17:20.875Z,33.55
2023-05-01T16:19:48.776Z,33.51
2023-05-01T16:22:15.685Z,32.97
2023-05-01T16:24:42.679Z,33.11
2023-05-01T16:27:13.195Z,33.11
2023-05-01T16:29:40.306Z,34.07
2023-05-01T16:32:10.705Z,33.44
2023-05-01T16:34:38.992Z,33.39
2023-05-01T16:37:05.889Z,33.10
2023-05-01T16:39:37.851Z,34.77
2023-05-01T16:42:04.697Z,33.51
2023-05-01T16:44:34.933Z,33.78
2023-05-01T16:47:02.894Z,34.83
2023-05-01T16:49:29.850Z,37.30
2023-05-01T16:51:57.922Z,37.84
2023-05-01T16:54:31.404Z,37.88
2023-05-01T16:56:58.664Z,38.69
2023-05-01T16:59:27.300Z,38.65
2023-05-01T17:01:54.226Z,37.57
2023-05-01T17:04:21.193Z,37.74
2023-05-01T17:06:48.227Z,39.28
2023-05-01T17:09:15.095Z,40.16
2023-05-01T17:11:55.914Z,41.18
2023-05-01T17:14:23.175Z,41.97
2023-05-01T17:16:50.590Z,41.74
2023-05-01T17:19:17.473Z,42.11
2023-05-01T17:21:44.115Z,42.73
2023-05-01T17:24:12.470Z,43.59
2023-05-01T17:26:39.204Z,43.69
2023-05-01T17:29:06.068Z,44.12
2023-05-01T17:31:32.908Z,45.31
2023-05-01T17:34:00.140Z,45.95
2023-05-01T17:36:28.549Z,46.53
2023-05-01T17:38:55.677Z,47.72
2023-05-01T17:41:22.978Z,48.24
2023-05-01T17:43:52.128Z,48.25
2023-05-01T17:46:19.670Z,48.98
2023-05-01T17:48:48.080Z,48.99
2023-05-01T17:51:14.910Z,49.69
2023-05-01T17:53:42.008Z,49.53
2023-05-01T17:56:09.129Z,49.77
2023-05-01T17:58:35.826Z,50.62
2023-05-01T18:01:03.833Z,50.58
2023-05-01T18:03:32.051Z,51.70
2023-05-01T18:06:00.622Z,52.36
2023-05-01T18:08:27.849Z,52.05
2023-05-01T18:10:54.680Z,51.07
2023-05-01T18:13:27.083Z,52.38
2023-05-01T18:15:56.667Z,53.21
2023-05-01T18:18:23.545Z,53.69
2023-05-01T18:20:50.397Z,54.76
2023-05-01T18:23:18.224Z,55.16
2023-05-01T18:25:45.668Z,55.19
2023-05-01T18:28:12.448Z,55.21
2023-05-01T18:30:39.011Z,55.14
2023-05-01T18:33:05.678Z,55.97
2023-05-01T18:35:32.950Z,56.41
2023-05-01T18:37:59.614Z,56.35
2023-05-01T18:40:26.600Z,56.97
2023-05-01T18:42:53.678Z,57.04
2023-05-01T18:45:20.515Z,57.32
2023-05-01T18:47:49.452Z,57.46
2023-05-01T18:50:21.065Z,57.85
2023-05-01T18:52:48.126Z,57.93
2023-05-01T18:55:15.539Z,57.72
2023-05-01T18:57:43.158Z,57.58
2023-05-01T19:00:13.136Z,57.78
2023-05-01T19:02:40.454Z,58.16
2023-05-01T19:05:10.875Z,58.02
2023-05-01T19:07:37.681Z,58.36
2023-05-01T19:10:04.960Z,58.49
2023-05-01T19:12:31.864Z,58.26
2023-05-01T19:14:59.824Z,58.39
2023-05-01T19:17:27.108Z,58.43
2023-05-01T19:19:54.031Z,59.08
2023-05-01T19:22:20.781Z,59.41
2023-05-01T19:24:47.524Z,59.41
2023-05-01T19:27:14.254Z,59.52
2023-05-01T19:29:41.500Z,60.23
2023-05-01T19:32:08.462Z,60.19
2023-05-01T19:34:35.595Z,60.23
2023-05-01T19:37:03.230Z,60.08
2023-05-01T19:39:30.215Z,60.00
2023-05-01T19:41:58.492Z,60.20
2023-05-01T19:44:25.432Z,59.73
2023-05-01T19:46:55.562Z,58.81
2023-05-01T19:49:24.406Z,58.81
2023-05-01T19:51:55.073Z,59.53
2023-05-01T19:54:25.504Z,59.91
2023-05-01T19:56:53.282Z,60.63
2023-05-01T19:59:22.777Z,60.07
2023-05-01T20:01:50.089Z,61.08
2023-05-01T20:04:17.216Z,61.89
2023-05-01T20:06:44.515Z,62.06
2023-05-01T20:09:11.678Z,62.20
2023-05-01T20:11:38.819Z,62.37
2023-05-01T20:14:05.678Z,62.56
2023-05-01T20:16:32.761Z,62.57
2023-05-01T20:18:59.776Z,62.18
2023-05-01T20:21:26.601Z,62.29
2023-05-01T20:23:54.495Z,62.58
2023-05-01T20:26:21.739Z,61.53
2023-05-01T20:28:50.311Z,61.68
2023-05-01T20:31:17.310Z,61.47
2023-05-01T20:33:44.519Z,61.22
2023-05-01T20:36:14.744Z,61.61
2023-05-01T20:38:46.867Z,62.14
2023-05-01T20:41:20.307Z,62.43
2023-05-01T20:43:50.326Z,62.53
2023-05-01T20:46:17.412Z,62.65
2023-05-01T20:48:44.628Z,62.69
2023-05-01T20:51:14.845Z,62.71
2023-05-01T20:53:42.013Z,62.52
2023-05-01T20:56:12.512Z,62.64
2023-05-01T20:58:42.158Z,62.44
2023-05-01T21:01:09.312Z,63.08
2023-05-01T21:03:36.345Z,63.38
2023-05-01T21:06:06.264Z,63.43
2023-05-01T21:08:33.519Z,63.41
2023-05-01T21:11:01.673Z,63.38
2023-05-01T21:13:28.681Z,64.52
2023-05-01T21:15:55.685Z,63.47
2023-05-01T21:18:22.958Z,63.53
2023-05-01T21:20:49.764Z,64.16
2023-05-01T21:23:17.115Z,64.57
2023-05-01T21:25:43.890Z,64.51
2023-05-01T21:28:14.199Z,64.70
2023-05-01T21:30:41.237Z,64.37
2023-05-01T21:33:12.441Z,64.37
2023-05-01T21:35:45.164Z,64.52
2023-05-01T21:38:12.523Z,64.38
2023-05-01T21:40:45.319Z,64.44
2023-05-01T21:43:12.194Z,64.72
2023-05-01T21:45:43.121Z,64.56
2023-05-01T21:48:14.107Z,64.89
2023-05-01T21:50:40.969Z,65.19
2023-05-01T21:53:08.027Z,65.08
2023-05-01T21:55:34.854Z,65.15
2023-05-01T21:58:02.434Z,65.41
2023-05-01T22:00:29.569Z,65.54
2023-05-01T22:02:56.453Z,65.64
2023-05-01T22:05:23.530Z,65.37
2023-05-01T22:07:51.592Z,65.70
2023-05-01T22:10:19.352Z,65.99
2023-05-01T22:12:48.618Z,66.12
2023-05-01T22:15:16.465Z,65.72
2023-05-01T22:17:44.355Z,66.16
2023-05-01T22:20:11.532Z,66.26
2023-05-01T22:22:39.958Z,66.48
2023-05-01T22:25:08.100Z,66.52
2023-05-01T22:27:35.782Z,66.47
2023-05-01T22:30:04.065Z,66.12
2023-05-01T22:32:31.054Z,66.65
2023-05-01T22:34:58.018Z,67.25
2023-05-01T22:37:27.315Z,67.29
2023-05-01T22:39:54.200Z,67.11
2023-05-01T22:42:21.804Z,67.02
2023-05-01T22:44:49.001Z,66.87
2023-05-01T22:47:15.857Z,67.06
2023-05-01T22:49:42.875Z,67.24
2023-05-01T22:52:09.537Z,67.46
2023-05-01T22:54:36.148Z,67.94
2023-05-01T22:57:02.985Z,67.97
2023-05-01T22:59:29.745Z,67.98
2023-05-01T23:01:56.675Z,67.89
2023-05-01T23:04:23.537Z,67.41
2023-05-01T23:06:50.595Z,67.29
2023-05-01T23:09:17.829Z,68.93
2023-05-01T23:11:47.059Z,68.64
2023-05-01T23:14:17.657Z,67.45
2023-05-01T23:16:47.589Z,68.15
2023-05-01T23:19:24.730Z,68.35
2023-05-01T23:22:08.044Z,68.22
2023-05-01T23:24:48.013Z,68.57
2023-05-01T23:27:16.740Z,68.73
2023-05-01T23:29:55.572Z,68.71
2023-05-01T23:32:31.762Z,68.98
2023-05-01T23:35:13.104Z,69.13
2023-05-01T23:37:40.354Z,69.26
2023-05-01T23:40:08.770Z,69.30
2023-05-01T23:42:37.532Z,69.44
2023-05-01T23:45:06.047Z,69.60
2023-05-01T23:47:33.455Z,69.42
2023-05-01T23:50:00.848Z,69.22
2023-05-01T23:52:27.856Z,69.51
2023-05-01T23:54:55.013Z,69.48
2023-05-01T23:57:25.189Z,69.80
2023-05-01T23:59:52.125Z,69.75
